Colerain Township, Ohio
Current Conditions -  °F | °C
As of 12:35 AM on Sunday 23 Nov 2014 (Local Time) from KI67 Reporting Station
Overcast Overcast  
Wind Chill: 50°   Ceiling: 8500
Heat Index: 50°   Visibility: 10mi
Dew Point: 32°   Wind: 6mph
Humidity: 50%   Direction: 200°SSW
Pressure: 30.04"   Gusts: NA
Location:  39.2201°N, 84.6531°W
Report Text: KI67 230535Z AUTO 20005KT 10SM SCT075 BKN085 OVC110 10/00 A3004 RMK AO1
Loading
Personal Weather Stations






























Interactive Weather Map New forecast layout! Learn more

10-Day Weather Forecast

Advertisements
Track Severe Weather on mobile